sensor_id;sensor_type;location;lat;lon;timestamp;pressure;altitude;pressure_sealevel;temperature;humidity
24234;BME280;12365;43.554;1.388;2023-01-25T00:01:29;101376.75;;;2.42;58.68
24234;BME280;12365;43.554;1.388;2023-01-25T00:03:54;101373.09;;;2.40;58.73
24234;BME280;12365;43.554;1.388;2023-01-25T00:06:19;101377.00;;;2.36;58.42
24234;BME280;12365;43.554;1.388;2023-01-25T00:08:49;101377.28;;;2.31;58.53
24234;BME280;12365;43.554;1.388;2023-01-25T00:11:14;101369.78;;;2.25;58.56
24234;BME280;12365;43.554;1.388;2023-01-25T00:13:41;101373.72;;;2.22;58.59
24234;BME280;12365;43.554;1.388;2023-01-25T00:16:07;101372.22;;;2.24;58.91
24234;BME280;12365;43.554;1.388;2023-01-25T00:18:32;101370.72;;;2.26;58.53
24234;BME280;12365;43.554;1.388;2023-01-25T00:20:58;101377.69;;;2.27;59.11
24234;BME280;12365;43.554;1.388;2023-01-25T00:23:23;101387.06;;;2.26;59.00
24234;BME280;12365;43.554;1.388;2023-01-25T00:25:55;101388.75;;;2.26;58.98
24234;BME280;12365;43.554;1.388;2023-01-25T00:28:21;101390.25;;;2.24;58.66
24234;BME280;12365;43.554;1.388;2023-01-25T00:30:46;101388.75;;;2.26;58.63
24234;BME280;12365;43.554;1.388;2023-01-25T00:35:40;101376.09;;;2.20;58.54
24234;BME280;12365;43.554;1.388;2023-01-25T00:38:26;101376.56;;;2.16;58.70
24234;BME280;12365;43.554;1.388;2023-01-25T00:40:52;101369.56;;;2.15;58.86
24234;BME280;12365;43.554;1.388;2023-01-25T00:43:18;101372.88;;;2.14;58.63
24234;BME280;12365;43.554;1.388;2023-01-25T00:45:43;101363.19;;;2.11;58.94
24234;BME280;12365;43.554;1.388;2023-01-25T00:48:09;101371.66;;;2.10;58.78
24234;BME280;12365;43.554;1.388;2023-01-25T00:50:37;101365.44;;;2.08;59.03
24234;BME280;12365;43.554;1.388;2023-01-25T00:53:03;101356.63;;;2.06;59.04
24234;BME280;12365;43.554;1.388;2023-01-25T00:55:28;101355.72;;;2.06;58.89
24234;BME280;12365;43.554;1.388;2023-01-25T00:57:53;101347.25;;;2.07;59.04
24234;BME280;12365;43.554;1.388;2023-01-25T01:00:19;101361.00;;;2.07;58.79
24234;BME280;12365;43.554;1.388;2023-01-25T01:02:44;101363.59;;;2.07;59.08
24234;BME280;12365;43.554;1.388;2023-01-25T01:05:10;101371.91;;;2.05;59.09
24234;BME280;12365;43.554;1.388;2023-01-25T01:07:35;101367.34;;;2.02;58.81
24234;BME280;12365;43.554;1.388;2023-01-25T01:10:00;101366.28;;;2.00;58.68
24234;BME280;12365;43.554;1.388;2023-01-25T01:12:26;101363.34;;;1.97;59.17
24234;BME280;12365;43.554;1.388;2023-01-25T01:14:51;101365.28;;;1.91;59.00
24234;BME280;12365;43.554;1.388;2023-01-25T01:17:17;101366.13;;;1.83;58.74
24234;BME280;12365;43.554;1.388;2023-01-25T01:19:42;101368.78;;;1.76;58.80
24234;BME280;12365;43.554;1.388;2023-01-25T01:22:07;101364.94;;;1.72;58.82
24234;BME280;12365;43.554;1.388;2023-01-25T01:24:33;101364.78;;;1.70;58.95
24234;BME280;12365;43.554;1.388;2023-01-25T01:26:58;101371.75;;;1.71;59.00
24234;BME280;12365;43.554;1.388;2023-01-25T01:29:23;101374.75;;;1.67;59.29
24234;BME280;12365;43.554;1.388;2023-01-25T01:31:50;101367.75;;;1.66;58.99
24234;BME280;12365;43.554;1.388;2023-01-25T01:34:19;101373.22;;;1.69;58.89
24234;BME280;12365;43.554;1.388;2023-01-25T01:36:45;101372.34;;;1.69;59.40
24234;BME280;12365;43.554;1.388;2023-01-25T01:39:10;101382.81;;;1.70;59.52
24234;BME280;12365;43.554;1.388;2023-01-25T01:41:36;101377.81;;;1.72;59.24
24234;BME280;12365;43.554;1.388;2023-01-25T01:44:02;101377.81;;;1.72;59.25
24234;BME280;12365;43.554;1.388;2023-01-25T01:46:28;101381.63;;;1.76;59.40
24234;BME280;12365;43.554;1.388;2023-01-25T01:49:09;101384.22;;;1.76;59.12
24234;BME280;12365;43.554;1.388;2023-01-25T01:52:00;101376.31;;;1.74;59.37
24234;BME280;12365;43.554;1.388;2023-01-25T01:54:39;101376.31;;;1.74;59.37
24234;BME280;12365;43.554;1.388;2023-01-25T01:57:14;101380.56;;;1.73;59.16
24234;BME280;12365;43.554;1.388;2023-01-25T02:02:15;101374.00;;;1.68;59.12
24234;BME280;12365;43.554;1.388;2023-01-25T02:04:43;101385.03;;;1.67;59.54
24234;BME280;12365;43.554;1.388;2023-01-25T02:09:40;101390.19;;;1.67;59.39
24234;BME280;12365;43.554;1.388;2023-01-25T02:12:08;101395.34;;;1.67;59.60
24234;BME280;12365;43.554;1.388;2023-01-25T02:14:36;101407.84;;;1.64;59.34
24234;BME280;12365;43.554;1.388;2023-01-25T02:17:04;101407.84;;;1.64;59.71
24234;BME280;12365;43.554;1.388;2023-01-25T02:19:43;101405.25;;;1.64;59.63
24234;BME280;12365;43.554;1.388;2023-01-25T02:22:15;101411.16;;;1.63;59.62
24234;BME280;12365;43.554;1.388;2023-01-25T02:25:00;101399.97;;;1.63;59.50
24234;BME280;12365;43.554;1.388;2023-01-25T02:27:27;101406.78;;;1.62;59.15
24234;BME280;12365;43.554;1.388;2023-01-25T02:29:52;101407.34;;;1.60;59.63
24234;BME280;12365;43.554;1.388;2023-01-25T02:32:18;101407.34;;;1.60;59.69
24234;BME280;12365;43.554;1.388;2023-01-25T02:34:43;101407.00;;;1.57;59.46
24234;BME280;12365;43.554;1.388;2023-01-25T02:37:12;101395.47;;;1.53;59.59
24234;BME280;12365;43.554;1.388;2023-01-25T02:39:40;101407.25;;;1.51;59.30
24234;BME280;12365;43.554;1.388;2023-01-25T02:42:05;101396.28;;;1.45;59.40
24234;BME280;12365;43.554;1.388;2023-01-25T02:44:31;101388.97;;;1.41;59.47
24234;BME280;12365;43.554;1.388;2023-01-25T02:46:57;101387.56;;;1.36;59.74
24234;BME280;12365;43.554;1.388;2023-01-25T02:49:22;101361.06;;;1.21;59.39
24234;BME280;12365;43.554;1.388;2023-01-25T02:51:50;101370.53;;;1.29;59.22
24234;BME280;12365;43.554;1.388;2023-01-25T02:54:18;101374.63;;;1.27;59.21
24234;BME280;12365;43.554;1.388;2023-01-25T02:56:45;101369.28;;;1.25;59.16
24234;BME280;12365;43.554;1.388;2023-01-25T02:59:11;101365.63;;;1.23;59.38
24234;BME280;12365;43.554;1.388;2023-01-25T03:01:38;101362.91;;;1.22;59.44
24234;BME280;12365;43.554;1.388;2023-01-25T03:04:05;101361.81;;;1.20;59.89
24234;BME280;12365;43.554;1.388;2023-01-25T03:06:32;101358.84;;;1.24;59.83
24234;BME280;12365;43.554;1.388;2023-01-25T03:08:57;101361.59;;;1.25;59.78
24234;BME280;12365;43.554;1.388;2023-01-25T03:11:23;101360.81;;;1.26;60.00
24234;BME280;12365;43.554;1.388;2023-01-25T03:13:48;101361.00;;;1.28;59.55
24234;BME280;12365;43.554;1.388;2023-01-25T03:16:14;101361.91;;;1.28;59.41
24234;BME280;12365;43.554;1.388;2023-01-25T03:18:40;101361.91;;;1.28;59.54
24234;BME280;12365;43.554;1.388;2023-01-25T03:21:14;101352.06;;;1.24;59.35
24234;BME280;12365;43.554;1.388;2023-01-25T03:23:40;101356.06;;;1.29;59.81
24234;BME280;12365;43.554;1.388;2023-01-25T03:26:11;101361.19;;;1.29;59.75
24234;BME280;12365;43.554;1.388;2023-01-25T03:28:38;101355.28;;;1.30;59.60
24234;BME280;12365;43.554;1.388;2023-01-25T03:31:05;101358.44;;;1.28;59.94
24234;BME280;12365;43.554;1.388;2023-01-25T03:33:31;101357.53;;;1.27;59.47
24234;BME280;12365;43.554;1.388;2023-01-25T03:35:56;101352.78;;;1.23;59.69
24234;BME280;12365;43.554;1.388;2023-01-25T03:38:22;101353.53;;;1.22;59.84
24234;BME280;12365;43.554;1.388;2023-01-25T03:40:48;101359.41;;;1.21;60.09
24234;BME280;12365;43.554;1.388;2023-01-25T03:43:14;101365.50;;;1.22;60.07
24234;BME280;12365;43.554;1.388;2023-01-25T03:45:39;101369.69;;;1.21;59.51
24234;BME280;12365;43.554;1.388;2023-01-25T03:48:05;101362.75;;;1.20;59.95
24234;BME280;12365;43.554;1.388;2023-01-25T03:50:31;101360.56;;;1.16;59.76
24234;BME280;12365;43.554;1.388;2023-01-25T03:53:29;101362.56;;;1.19;59.78
24234;BME280;12365;43.554;1.388;2023-01-25T03:55:57;101364.66;;;1.14;59.62
24234;BME280;12365;43.554;1.388;2023-01-25T03:58:23;101368.13;;;1.15;59.58
24234;BME280;12365;43.554;1.388;2023-01-25T04:00:48;101364.47;;;1.13;59.89
24234;BME280;12365;43.554;1.388;2023-01-25T04:03:14;101356.75;;;1.13;60.17
24234;BME280;12365;43.554;1.388;2023-01-25T04:05:41;101358.41;;;1.12;60.13
24234;BME280;12365;43.554;1.388;2023-01-25T04:08:07;101372.94;;;1.12;60.08
24234;BME280;12365;43.554;1.388;2023-01-25T04:10:32;101364.13;;;1.10;59.96
24234;BME280;12365;43.554;1.388;2023-01-25T04:12:58;101366.50;;;1.08;60.21
24234;BME280;12365;43.554;1.388;2023-01-25T04:15:23;101362.13;;;1.07;59.60
24234;BME280;12365;43.554;1.388;2023-01-25T04:17:49;101356.47;;;1.02;59.57
24234;BME280;12365;43.554;1.388;2023-01-25T04:20:14;101353.00;;;1.02;59.95
24234;BME280;12365;43.554;1.388;2023-01-25T04:22:40;101356.28;;;1.01;59.54
24234;BME280;12365;43.554;1.388;2023-01-25T04:25:06;101348.59;;;1.01;59.80
24234;BME280;12365;43.554;1.388;2023-01-25T04:27:31;101339.06;;;1.00;60.20
24234;BME280;12365;43.554;1.388;2023-01-25T04:29:57;101351.91;;;1.00;59.93
24234;BME280;12365;43.554;1.388;2023-01-25T04:32:22;101358.13;;;1.02;60.04
24234;BME280;12365;43.554;1.388;2023-01-25T04:34:48;101353.16;;;1.03;60.32
24234;BME280;12365;43.554;1.388;2023-01-25T04:37:13;101347.09;;;1.03;60.07
24234;BME280;12365;43.554;1.388;2023-01-25T04:39:38;101341.81;;;1.01;59.82
24234;BME280;12365;43.554;1.388;2023-01-25T04:42:04;101337.25;;;0.99;60.46
24234;BME280;12365;43.554;1.388;2023-01-25T04:44:29;101340.72;;;0.99;60.01
24234;BME280;12365;43.554;1.388;2023-01-25T04:46:55;101347.53;;;0.99;60.06
24234;BME280;12365;43.554;1.388;2023-01-25T04:49:20;101343.44;;;1.01;60.51
24234;BME280;12365;43.554;1.388;2023-01-25T04:51:45;101342.53;;;1.00;59.92
24234;BME280;12365;43.554;1.388;2023-01-25T04:54:11;101351.00;;;0.99;60.52
24234;BME280;12365;43.554;1.388;2023-01-25T04:56:36;101352.25;;;1.03;60.15
24234;BME280;12365;43.554;1.388;2023-01-25T04:59:02;101348.59;;;1.01;60.10
24234;BME280;12365;43.554;1.388;2023-01-25T05:01:27;101345.13;;;1.00;60.34
24234;BME280;12365;43.554;1.388;2023-01-25T05:03:52;101344.38;;;1.01;60.05
24234;BME280;12365;43.554;1.388;2023-01-25T05:06:18;101343.81;;;1.04;60.28
24234;BME280;12365;43.554;1.388;2023-01-25T05:08:43;101339.16;;;1.08;60.18
24234;BME280;12365;43.554;1.388;2023-01-25T05:11:08;101336.94;;;1.12;60.32
24234;BME280;12365;43.554;1.388;2023-01-25T05:13:34;101331.22;;;1.14;60.23
24234;BME280;12365;43.554;1.388;2023-01-25T05:15:59;101336.72;;;1.17;60.31
24234;BME280;12365;43.554;1.388;2023-01-25T05:18:25;101333.22;;;1.17;60.22
24234;BME280;12365;43.554;1.388;2023-01-25T05:20:54;101324.00;;;1.19;60.45
24234;BME280;12365;43.554;1.388;2023-01-25T05:23:20;101322.38;;;1.19;60.70
24234;BME280;12365;43.554;1.388;2023-01-25T05:25:45;101325.28;;;1.22;60.22
24234;BME280;12365;43.554;1.388;2023-01-25T05:28:29;101317.88;;;1.25;60.68
24234;BME280;12365;43.554;1.388;2023-01-25T05:30:55;101320.97;;;1.30;60.67
24234;BME280;12365;43.554;1.388;2023-01-25T05:33:20;101322.97;;;1.33;60.44
24234;BME280;12365;43.554;1.388;2023-01-25T05:35:45;101324.03;;;1.35;60.33
24234;BME280;12365;43.554;1.388;2023-01-25T05:38:11;101328.75;;;1.39;60.91
24234;BME280;12365;43.554;1.388;2023-01-25T05:40:36;101340.88;;;1.40;60.66
24234;BME280;12365;43.554;1.388;2023-01-25T05:43:02;101336.66;;;1.40;60.75
24234;BME280;12365;43.554;1.388;2023-01-25T05:45:27;101331.66;;;1.42;60.37
24234;BME280;12365;43.554;1.388;2023-01-25T05:47:58;101331.09;;;1.44;60.89
24234;BME280;12365;43.554;1.388;2023-01-25T05:50:24;101331.25;;;1.46;60.41
24234;BME280;12365;43.554;1.388;2023-01-25T05:52:50;101336.72;;;1.49;60.91
24234;BME280;12365;43.554;1.388;2023-01-25T05:55:16;101338.56;;;1.50;60.80
24234;BME280;12365;43.554;1.388;2023-01-25T05:57:41;101336.31;;;1.53;60.85
24234;BME280;12365;43.554;1.388;2023-01-25T06:00:08;101342.56;;;1.55;60.75
24234;BME280;12365;43.554;1.388;2023-01-25T06:02:33;101348.03;;;1.58;60.90
24234;BME280;12365;43.554;1.388;2023-01-25T06:04:59;101354.25;;;1.60;60.95
24234;BME280;12365;43.554;1.388;2023-01-25T06:07:24;101353.50;;;1.61;61.06
24234;BME280;12365;43.554;1.388;2023-01-25T06:09:50;101350.19;;;1.62;60.70
24234;BME280;12365;43.554;1.388;2023-01-25T06:12:19;101354.41;;;1.62;61.30
24234;BME280;12365;43.554;1.388;2023-01-25T06:14:45;101356.06;;;1.61;61.19
24234;BME280;12365;43.554;1.388;2023-01-25T06:17:11;101351.69;;;1.60;60.89
24234;BME280;12365;43.554;1.388;2023-01-25T06:19:37;101353.50;;;1.61;61.28
24234;BME280;12365;43.554;1.388;2023-01-25T06:22:02;101356.25;;;1.63;61.04
24234;BME280;12365;43.554;1.388;2023-01-25T06:24:28;101350.53;;;1.65;61.19
24234;BME280;12365;43.554;1.388;2023-01-25T06:26:53;101354.50;;;1.70;60.88
24234;BME280;12365;43.554;1.388;2023-01-25T06:29:18;101349.69;;;1.73;61.17
24234;BME280;12365;43.554;1.388;2023-01-25T06:31:44;101348.19;;;1.76;61.09
24234;BME280;12365;43.554;1.388;2023-01-25T06:34:09;101351.09;;;1.79;61.33
24234;BME280;12365;43.554;1.388;2023-01-25T06:36:35;101340.03;;;1.80;61.14
24234;BME280;12365;43.554;1.388;2023-01-25T06:39:00;101338.56;;;1.82;60.88
24234;BME280;12365;43.554;1.388;2023-01-25T06:41:26;101337.81;;;1.83;60.76
24234;BME280;12365;43.554;1.388;2023-01-25T06:43:52;101340.72;;;1.86;61.58
24234;BME280;12365;43.554;1.388;2023-01-25T06:46:18;101351.16;;;1.87;60.90
24234;BME280;12365;43.554;1.388;2023-01-25T06:48:43;101361.03;;;1.91;61.34
24234;BME280;12365;43.554;1.388;2023-01-25T06:51:11;101357.16;;;1.95;61.03
24234;BME280;12365;43.554;1.388;2023-01-25T06:53:39;101357.47;;;1.98;61.04
24234;BME280;12365;43.554;1.388;2023-01-25T06:56:14;101368.09;;;2.01;61.07
24234;BME280;12365;43.554;1.388;2023-01-25T06:58:40;101358.13;;;2.04;61.66
24234;BME280;12365;43.554;1.388;2023-01-25T07:01:13;101359.97;;;2.05;61.05
24234;BME280;12365;43.554;1.388;2023-01-25T07:03:39;101359.97;;;2.05;61.29
24234;BME280;12365;43.554;1.388;2023-01-25T07:06:07;101370.91;;;2.11;61.09
24234;BME280;12365;43.554;1.388;2023-01-25T07:08:33;101364.25;;;2.13;61.32
24234;BME280;12365;43.554;1.388;2023-01-25T07:11:01;101369.72;;;2.16;61.30
24234;BME280;12365;43.554;1.388;2023-01-25T07:13:28;101368.25;;;2.19;61.27
24234;BME280;12365;43.554;1.388;2023-01-25T07:15:56;101365.66;;;2.19;61.41
24234;BME280;12365;43.554;1.388;2023-01-25T07:18:22;101365.09;;;2.21;61.45
24234;BME280;12365;43.554;1.388;2023-01-25T07:20:48;101365.97;;;2.22;61.24
24234;BME280;12365;43.554;1.388;2023-01-25T07:23:14;101361.00;;;2.23;61.55
24234;BME280;12365;43.554;1.388;2023-01-25T07:25:44;101362.25;;;2.27;61.70
24234;BME280;12365;43.554;1.388;2023-01-25T07:28:09;101360.75;;;2.29;61.63
24234;BME280;12365;43.554;1.388;2023-01-25T07:30:35;101365.31;;;2.31;61.38
24234;BME280;12365;43.554;1.388;2023-01-25T07:33:00;101367.13;;;2.32;61.59
24234;BME280;12365;43.554;1.388;2023-01-25T07:35:25;101363.81;;;2.33;61.69
24234;BME280;12365;43.554;1.388;2023-01-25T07:37:51;101363.22;;;2.36;61.69
24234;BME280;12365;43.554;1.388;2023-01-25T07:40:16;101366.84;;;2.38;61.58
24234;BME280;12365;43.554;1.388;2023-01-25T07:42:41;101371.44;;;2.41;61.72
24234;BME280;12365;43.554;1.388;2023-01-25T07:45:07;101377.81;;;2.44;61.79
24234;BME280;12365;43.554;1.388;2023-01-25T07:47:33;101383.28;;;2.47;61.70
24234;BME280;12365;43.554;1.388;2023-01-25T07:49:58;101388.94;;;2.52;61.76
24234;BME280;12365;43.554;1.388;2023-01-25T07:52:24;101390.31;;;2.57;61.64
24234;BME280;12365;43.554;1.388;2023-01-25T07:54:49;101385.50;;;2.60;61.70
24234;BME280;12365;43.554;1.388;2023-01-25T07:57:14;101388.56;;;2.65;61.61
24234;BME280;12365;43.554;1.388;2023-01-25T07:59:40;101379.16;;;2.65;61.84
24234;BME280;12365;43.554;1.388;2023-01-25T08:02:09;101390.13;;;2.71;61.74
24234;BME280;12365;43.554;1.388;2023-01-25T08:04:34;101390.44;;;2.74;61.72
24234;BME280;12365;43.554;1.388;2023-01-25T08:07:00;101393.50;;;2.79;61.81
24234;BME280;12365;43.554;1.388;2023-01-25T08:09:25;101391.38;;;2.83;61.73
24234;BME280;12365;43.554;1.388;2023-01-25T08:11:51;101396.88;;;2.87;61.75
24234;BME280;12365;43.554;1.388;2023-01-25T08:14:17;101402.53;;;2.91;61.80
24234;BME280;12365;43.554;1.388;2023-01-25T08:16:43;101398.75;;;2.96;61.83
24234;BME280;12365;43.554;1.388;2023-01-25T08:19:09;101403.47;;;3.00;61.75
24234;BME280;12365;43.554;1.388;2023-01-25T08:21:35;101409.09;;;3.05;61.61
24234;BME280;12365;43.554;1.388;2023-01-25T08:24:04;101407.91;;;3.10;61.87
24234;BME280;12365;43.554;1.388;2023-01-25T08:26:29;101405.81;;;3.15;61.74
24234;BME280;12365;43.554;1.388;2023-01-25T08:28:55;101402.78;;;3.19;61.75
24234;BME280;12365;43.554;1.388;2023-01-25T08:31:23;101417.06;;;3.24;61.75
24234;BME280;12365;43.554;1.388;2023-01-25T08:33:50;101403.75;;;3.28;61.97
24234;BME280;12365;43.554;1.388;2023-01-25T08:36:16;101402.25;;;3.30;61.70
24234;BME280;12365;43.554;1.388;2023-01-25T08:38:43;101404.38;;;3.34;61.60
24234;BME280;12365;43.554;1.388;2023-01-25T08:41:11;101406.50;;;3.38;61.74
24234;BME280;12365;43.554;1.388;2023-01-25T08:43:38;101415.31;;;3.40;61.79
24234;BME280;12365;43.554;1.388;2023-01-25T08:46:04;101424.44;;;3.45;62.08
24234;BME280;12365;43.554;1.388;2023-01-25T08:48:30;101423.84;;;3.48;61.73
24234;BME280;12365;43.554;1.388;2023-01-25T08:50:56;101426.91;;;3.53;61.84
24234;BME280;12365;43.554;1.388;2023-01-25T08:53:21;101427.22;;;3.56;62.06
24234;BME280;12365;43.554;1.388;2023-01-25T08:55:47;101422.34;;;3.59;61.85
24234;BME280;12365;43.554;1.388;2023-01-25T08:58:14;101424.50;;;3.63;61.70
24234;BME280;12365;43.554;1.388;2023-01-25T09:00:41;101426.63;;;3.67;61.73
24234;BME280;12365;43.554;1.388;2023-01-25T09:03:07;101426.97;;;3.70;61.54
24234;BME280;12365;43.554;1.388;2023-01-25T09:05:34;101432.56;;;3.75;61.90
24234;BME280;12365;43.554;1.388;2023-01-25T09:08:00;101431.22;;;3.78;61.74
24234;BME280;12365;43.554;1.388;2023-01-25T09:10:26;101427.28;;;3.82;61.51
24234;BME280;12365;43.554;1.388;2023-01-25T09:12:52;101433.66;;;3.85;62.08
24234;BME280;12365;43.554;1.388;2023-01-25T09:15:17;101433.03;;;3.79;62.14
24234;BME280;12365;43.554;1.388;2023-01-25T09:17:43;101441.84;;;3.81;61.98
24234;BME280;12365;43.554;1.388;2023-01-25T09:20:09;101440.66;;;3.86;62.16
24234;BME280;12365;43.554;1.388;2023-01-25T09:22:34;101435.78;;;3.89;61.95
24234;BME280;12365;43.554;1.388;2023-01-25T09:25:00;101440.94;;;3.89;62.11
24234;BME280;12365;43.554;1.388;2023-01-25T09:27:25;101439.13;;;3.88;61.51
24234;BME280;12365;43.554;1.388;2023-01-25T09:29:51;101441.88;;;3.90;61.96
24234;BME280;12365;43.554;1.388;2023-01-25T09:32:16;101441.28;;;3.93;61.88
24234;BME280;12365;43.554;1.388;2023-01-25T09:34:42;101451.63;;;3.93;62.09
24234;BME280;12365;43.554;1.388;2023-01-25T09:37:07;101439.75;;;3.95;61.87
24234;BME280;12365;43.554;1.388;2023-01-25T09:39:32;101440.06;;;3.98;61.88
24234;BME280;12365;43.554;1.388;2023-01-25T09:53:38;101427.63;;;4.11;61.91
24234;BME280;12365;43.554;1.388;2023-01-25T09:55:39;101426.25;;;4.15;62.00
24234;BME280;12365;43.554;1.388;2023-01-25T09:58:11;101426.72;;;4.19;61.82
24234;BME280;12365;43.554;1.388;2023-01-25T10:00:43;101425.34;;;4.23;61.62
24234;BME280;12365;43.554;1.388;2023-01-25T10:03:20;101424.00;;;4.26;61.93
24234;BME280;12365;43.554;1.388;2023-01-25T10:05:50;101423.09;;;4.26;61.68
24234;BME280;12365;43.554;1.388;2023-01-25T10:11:27;101417.44;;;4.30;61.94
24234;BME280;12365;43.554;1.388;2023-01-25T10:13:54;101412.44;;;4.31;61.69
24234;BME280;12365;43.554;1.388;2023-01-25T10:16:32;101408.66;;;4.37;62.03
24234;BME280;12365;43.554;1.388;2023-01-25T10:21:48;101402.88;;;4.39;62.18
24234;BME280;12365;43.554;1.388;2023-01-25T10:27:17;101404.84;;;4.42;61.77
24234;BME280;12365;43.554;1.388;2023-01-25T10:29:45;101400.56;;;4.42;61.85
24234;BME280;12365;43.554;1.388;2023-01-25T10:32:32;101400.75;;;4.44;62.12
24234;BME280;12365;43.554;1.388;2023-01-25T10:35:16;101396.66;;;4.46;61.87
24234;BME280;12365;43.554;1.388;2023-01-25T10:37:42;101401.94;;;4.47;62.16
24234;BME280;12365;43.554;1.388;2023-01-25T10:42:46;101396.03;;;4.48;62.01
24234;BME280;12365;43.554;1.388;2023-01-25T10:45:15;101394.47;;;4.50;61.70
24234;BME280;12365;43.554;1.388;2023-01-25T10:47:43;101390.25;;;4.51;62.12
24234;BME280;12365;43.554;1.388;2023-01-25T10:50:51;101391.44;;;4.54;62.23
24234;BME280;12365;43.554;1.388;2023-01-25T10:53:42;101376.25;;;4.57;61.71
24234;BME280;12365;43.554;1.388;2023-01-25T10:58:42;101373.03;;;4.60;62.14
24234;BME280;12365;43.554;1.388;2023-01-25T11:01:30;101367.41;;;4.64;61.62
24234;BME280;12365;43.554;1.388;2023-01-25T11:03:57;101361.03;;;4.69;61.85
24234;BME280;12365;43.554;1.388;2023-01-25T11:06:34;101359.78;;;4.74;61.37
24234;BME280;12365;43.554;1.388;2023-01-25T11:12:35;101353.06;;;4.85;61.90
24234;BME280;12365;43.554;1.388;2023-01-25T11:14:42;101340.75;;;4.91;61.73
24234;BME280;12365;43.554;1.388;2023-01-25T11:17:21;101345.41;;;4.95;61.83
24234;BME280;12365;43.554;1.388;2023-01-25T11:19:47;101334.44;;;4.98;60.90
24234;BME280;12365;43.554;1.388;2023-01-25T11:22:21;101339.91;;;5.01;61.88
24234;BME280;12365;43.554;1.388;2023-01-25T11:24:50;101334.75;;;5.01;61.17
24234;BME280;12365;43.554;1.388;2023-01-25T11:27:23;101333.84;;;5.00;61.73
24234;BME280;12365;43.554;1.388;2023-01-25T11:32:33;101330.81;;;4.96;61.63
24234;BME280;12365;43.554;1.388;2023-01-25T11:34:59;101320.34;;;4.94;61.16
24234;BME280;12365;43.554;1.388;2023-01-25T11:37:30;101327.94;;;4.93;61.09
24234;BME280;12365;43.554;1.388;2023-01-25T11:40:13;101316.84;;;4.94;61.36
24234;BME280;12365;43.554;1.388;2023-01-25T11:42:51;101313.47;;;4.95;60.91
24234;BME280;12365;43.554;1.388;2023-01-25T11:50:40;101316.34;;;4.98;61.49
24234;BME280;12365;43.554;1.388;2023-01-25T11:53:45;101300.84;;;4.98;61.04
24234;BME280;12365;43.554;1.388;2023-01-25T12:07:01;101276.75;;;5.08;60.82
24234;BME280;12365;43.554;1.388;2023-01-25T12:10:00;101274.31;;;5.09;60.95
24234;BME280;12365;43.554;1.388;2023-01-25T12:13:06;101267.47;;;5.10;60.74
24234;BME280;12365;43.554;1.388;2023-01-25T12:16:08;101266.84;;;5.12;60.72
24234;BME280;12365;43.554;1.388;2023-01-25T12:32:08;101236.34;;;5.18;60.55
24234;BME280;12365;43.554;1.388;2023-01-25T12:34:40;101229.09;;;5.14;61.20
24234;BME280;12365;43.554;1.388;2023-01-25T12:37:16;101236.63;;;5.21;60.65
24234;BME280;12365;43.554;1.388;2023-01-25T12:39:50;101237.56;;;5.22;60.35
24234;BME280;12365;43.554;1.388;2023-01-25T12:42:25;101233.03;;;5.19;61.10
24234;BME280;12365;43.554;1.388;2023-01-25T12:44:58;101227.84;;;5.19;60.65
24234;BME280;12365;43.554;1.388;2023-01-25T12:47:54;101217.50;;;5.19;60.80
24234;BME280;12365;43.554;1.388;2023-01-25T12:50:29;101215.66;;;5.18;60.43
24234;BME280;12365;43.554;1.388;2023-01-25T12:53:01;101212.03;;;5.16;60.98
24234;BME280;12365;43.554;1.388;2023-01-25T12:55:29;101204.13;;;5.15;60.45
24234;BME280;12365;43.554;1.388;2023-01-25T12:57:57;101208.41;;;5.14;60.69
24234;BME280;12365;43.554;1.388;2023-01-25T13:11:59;101169.09;;;5.18;60.63
24234;BME280;12365;43.554;1.388;2023-01-25T13:16:47;101173.00;;;5.24;60.78
24234;BME280;12365;43.554;1.388;2023-01-25T13:22:02;101168.16;;;5.27;60.15
24234;BME280;12365;43.554;1.388;2023-01-25T13:24:32;101166.31;;;5.26;60.37
24234;BME280;12365;43.554;1.388;2023-01-25T13:27:00;101162.19;;;5.28;60.18
24234;BME280;12365;43.554;1.388;2023-01-25T13:32:07;101147.72;;;5.30;60.26
24234;BME280;12365;43.554;1.388;2023-01-25T13:37:25;101148.63;;;5.30;59.97
24234;BME280;12365;43.554;1.388;2023-01-25T13:39:53;101147.09;;;5.32;60.05
24234;BME280;12365;43.554;1.388;2023-01-25T13:42:21;101149.78;;;5.34;60.23
24234;BME280;12365;43.554;1.388;2023-01-25T13:44:50;101143.88;;;5.35;59.71
24234;BME280;12365;43.554;1.388;2023-01-25T13:47:22;101146.72;;;5.38;59.98
24234;BME280;12365;43.554;1.388;2023-01-25T13:52:20;101142.97;;;5.34;59.99
24234;BME280;12365;43.554;1.388;2023-01-25T13:54:48;101147.22;;;5.34;59.82
24234;BME280;12365;43.554;1.388;2023-01-25T13:57:19;101150.44;;;5.31;59.59
24234;BME280;12365;43.554;1.388;2023-01-25T13:59:44;101147.50;;;5.37;59.75
24234;BME280;12365;43.554;1.388;2023-01-25T14:02:21;101153.16;;;5.33;60.02
24234;BME280;12365;43.554;1.388;2023-01-25T14:04:49;101138.44;;;5.32;60.07
24234;BME280;12365;43.554;1.388;2023-01-25T14:07:20;101140.38;;;5.34;60.39
24234;BME280;12365;43.554;1.388;2023-01-25T14:09:49;101142.34;;;5.37;60.15
24234;BME280;12365;43.554;1.388;2023-01-25T14:12:38;101136.38;;;5.38;59.79
24234;BME280;12365;43.554;1.388;2023-01-25T14:18:10;101131.47;;;5.41;59.69
24234;BME280;12365;43.554;1.388;2023-01-25T14:20:36;101134.84;;;5.40;59.57
24234;BME280;12365;43.554;1.388;2023-01-25T14:23:02;101130.56;;;5.40;59.70
24234;BME280;12365;43.554;1.388;2023-01-25T14:25:31;101131.75;;;5.44;59.67
24234;BME280;12365;43.554;1.388;2023-01-25T14:28:01;101139.50;;;5.44;59.85
24234;BME280;12365;43.554;1.388;2023-01-25T14:30:34;101145.47;;;5.43;59.38
24234;BME280;12365;43.554;1.388;2023-01-25T14:33:16;101146.25;;;5.42;59.62
24234;BME280;12365;43.554;1.388;2023-01-25T14:35:46;101127.09;;;5.40;59.62
24234;BME280;12365;43.554;1.388;2023-01-25T14:38:28;101126.81;;;5.37;60.15
24234;BME280;12365;43.554;1.388;2023-01-25T14:41:01;101133.63;;;5.36;59.85
24234;BME280;12365;43.554;1.388;2023-01-25T14:43:29;101128.19;;;5.33;59.40